<?xml version="1.0" encoding="UTF-8" standalone="no" ?>
<gpx xmlns="http://www.topografix.com/GPX/1/1" xmlns:xsi="http://www.w3.org/2001/XMLSchema-instance" xsi:schemaLocation="http://www.topografix.com/GPX/1/1 http://www.topografix.com/GPX/1/1/gpx.xsd" version="1.1" creator="VisuGPX - https://www.visugpx.com">
  <metadata>
    <name>Grande boucle Simiane</name>
    <desc><![CDATA[Je la préfère dans l'autre sens !!]]></desc>
  </metadata>
  <trk>
    <name><![CDATA[2020-05-27 20:19:58]]></name>
    <trkseg>
      <trkpt lat="43.42906" lon="5.43585">
        <ele>246.72</ele>
        <time>2020-05-27T17:03:19Z</time>
      </trkpt>
      <trkpt lat="43.42905" lon="5.43585">
        <ele>248.16</ele>
        <time>2020-05-27T17:03:36Z</time>
      </trkpt>
      <trkpt lat="43.42903" lon="5.43589">
        <ele>248.16</ele>
        <time>2020-05-27T17:03:39Z</time>
      </trkpt>
      <trkpt lat="43.42904" lon="5.43601">
        <ele>247.2</ele>
        <time>2020-05-27T17:03:45Z</time>
      </trkpt>
      <trkpt lat="43.429" lon="5.43619">
        <ele>246.72</ele>
        <time>2020-05-27T17:04:01Z</time>
      </trkpt>
      <trkpt lat="43.42902" lon="5.43629">
        <ele>247.68</ele>
        <time>2020-05-27T17:04:13Z</time>
      </trkpt>
      <trkpt lat="43.42893" lon="5.4363">
        <ele>245.75</ele>
        <time>2020-05-27T17:04:24Z</time>
      </trkpt>
      <trkpt lat="43.42892" lon="5.4363">
        <ele>245.27</ele>
        <time>2020-05-27T17:04:25Z</time>
      </trkpt>
      <trkpt lat="43.42882" lon="5.43633">
        <ele>242.87</ele>
        <time>2020-05-27T17:04:31Z</time>
      </trkpt>
      <trkpt lat="43.42873" lon="5.4364">
        <ele>242.87</ele>
        <time>2020-05-27T17:04:37Z</time>
      </trkpt>
      <trkpt lat="43.42871" lon="5.43651">
        <ele>243.83</ele>
        <time>2020-05-27T17:04:43Z</time>
      </trkpt>
      <trkpt lat="43.42866" lon="5.43652">
        <ele>244.31</ele>
        <time>2020-05-27T17:04:47Z</time>
      </trkpt>
      <trkpt lat="43.42858" lon="5.43661">
        <ele>244.79</ele>
        <time>2020-05-27T17:04:57Z</time>
      </trkpt>
      <trkpt lat="43.42852" lon="5.43666">
        <ele>245.27</ele>
        <time>2020-05-27T17:05:03Z</time>
      </trkpt>
      <trkpt lat="43.42847" lon="5.43673">
        <ele>245.75</ele>
        <time>2020-05-27T17:05:09Z</time>
      </trkpt>
      <trkpt lat="43.42844" lon="5.43676">
        <ele>245.75</ele>
        <time>2020-05-27T17:05:11Z</time>
      </trkpt>
      <trkpt lat="43.42837" lon="5.43684">
        <ele>244.79</ele>
        <time>2020-05-27T17:05:18Z</time>
      </trkpt>
      <trkpt lat="43.42828" lon="5.43684">
        <ele>243.35</ele>
        <time>2020-05-27T17:05:24Z</time>
      </trkpt>
      <trkpt lat="43.4282" lon="5.43692">
        <ele>240.95</ele>
        <time>2020-05-27T17:05:30Z</time>
      </trkpt>
      <trkpt lat="43.42805" lon="5.43706">
        <ele>240.95</ele>
        <time>2020-05-27T17:05:43Z</time>
      </trkpt>
      <trkpt lat="43.42804" lon="5.43707">
        <ele>240.95</ele>
        <time>2020-05-27T17:05:44Z</time>
      </trkpt>
      <trkpt lat="43.42795" lon="5.43715">
        <ele>240.47</ele>
        <time>2020-05-27T17:05:52Z</time>
      </trkpt>
      <trkpt lat="43.42791" lon="5.4372">
        <ele>239.51</ele>
        <time>2020-05-27T17:05:56Z</time>
      </trkpt>
      <trkpt lat="43.42786" lon="5.43723">
        <ele>238.06</ele>
        <time>2020-05-27T17:06:00Z</time>
      </trkpt>
      <trkpt lat="43.42782" lon="5.43726">
        <ele>236.62</ele>
        <time>2020-05-27T17:06:03Z</time>
      </trkpt>
      <trkpt lat="43.42781" lon="5.43731">
        <ele>236.14</ele>
        <time>2020-05-27T17:06:06Z</time>
      </trkpt>
      <trkpt lat="43.42772" lon="5.43747">
        <ele>237.1</ele>
        <time>2020-05-27T17:06:19Z</time>
      </trkpt>
      <trkpt lat="43.42766" lon="5.43752">
        <ele>231.81</ele>
        <time>2020-05-27T17:06:32Z</time>
      </trkpt>
      <trkpt lat="43.42768" lon="5.43767">
        <ele>233.26</ele>
        <time>2020-05-27T17:06:38Z</time>
      </trkpt>
      <trkpt lat="43.4277" lon="5.43772">
        <ele>233.26</ele>
        <time>2020-05-27T17:06:41Z</time>
      </trkpt>
      <trkpt lat="43.42769" lon="5.43777">
        <ele>233.26</ele>
        <time>2020-05-27T17:06:44Z</time>
      </trkpt>
      <trkpt lat="43.42765" lon="5.43784">
        <ele>233.74</ele>
        <time>2020-05-27T17:06:50Z</time>
      </trkpt>
      <trkpt lat="43.42761" lon="5.43797">
        <ele>236.14</ele>
        <time>2020-05-27T17:07:00Z</time>
      </trkpt>
      <trkpt lat="43.4276" lon="5.43804">
        <ele>236.14</ele>
        <time>2020-05-27T17:07:04Z</time>
      </trkpt>
      <trkpt lat="43.42753" lon="5.4382">
        <ele>240.47</ele>
        <time>2020-05-27T17:07:15Z</time>
      </trkpt>
      <trkpt lat="43.42747" lon="5.43837">
        <ele>242.87</ele>
        <time>2020-05-27T17:07:28Z</time>
      </trkpt>
      <trkpt lat="43.42744" lon="5.43853">
        <ele>243.35</ele>
        <time>2020-05-27T17:07:38Z</time>
      </trkpt>
      <trkpt lat="43.42741" lon="5.43877">
        <ele>244.79</ele>
        <time>2020-05-27T17:07:52Z</time>
      </trkpt>
      <trkpt lat="43.42735" lon="5.43897">
        <ele>244.31</ele>
        <time>2020-05-27T17:08:05Z</time>
      </trkpt>
      <trkpt lat="43.42733" lon="5.43902">
        <ele>245.75</ele>
        <time>2020-05-27T17:08:08Z</time>
      </trkpt>
      <trkpt lat="43.42733" lon="5.43911">
        <ele>249.6</ele>
        <time>2020-05-27T17:08:13Z</time>
      </trkpt>
      <trkpt lat="43.42733" lon="5.43935">
        <ele>255.85</ele>
        <time>2020-05-27T17:08:27Z</time>
      </trkpt>
      <trkpt lat="43.42728" lon="5.43958">
        <ele>259.21</ele>
        <time>2020-05-27T17:08:40Z</time>
      </trkpt>
      <trkpt lat="43.42726" lon="5.43965">
        <ele>260.17</ele>
        <time>2020-05-27T17:08:44Z</time>
      </trkpt>
      <trkpt lat="43.42723" lon="5.43988">
        <ele>262.58</ele>
        <time>2020-05-27T17:08:56Z</time>
      </trkpt>
      <trkpt lat="43.42718" lon="5.44006">
        <ele>261.14</ele>
        <time>2020-05-27T17:09:08Z</time>
      </trkpt>
      <trkpt lat="43.42713" lon="5.44011">
        <ele>261.14</ele>
        <time>2020-05-27T17:09:13Z</time>
      </trkpt>
      <trkpt lat="43.42711" lon="5.44014">
        <ele>261.62</ele>
        <time>2020-05-27T17:09:15Z</time>
      </trkpt>
      <trkpt lat="43.42706" lon="5.44019">
        <ele>261.62</ele>
        <time>2020-05-27T17:09:20Z</time>
      </trkpt>
      <trkpt lat="43.42699" lon="5.44026">
        <ele>263.06</ele>
        <time>2020-05-27T17:09:30Z</time>
      </trkpt>
      <trkpt lat="43.42693" lon="5.4403">
        <ele>265.94</ele>
        <time>2020-05-27T17:09:42Z</time>
      </trkpt>
      <trkpt lat="43.42693" lon="5.4403">
        <ele>266.42</ele>
        <time>2020-05-27T17:09:44Z</time>
      </trkpt>
      <trkpt lat="43.42689" lon="5.44033">
        <ele>266.9</ele>
        <time>2020-05-27T17:09:48Z</time>
      </trkpt>
      <trkpt lat="43.42683" lon="5.44039">
        <ele>265.94</ele>
        <time>2020-05-27T17:09:55Z</time>
      </trkpt>
      <trkpt lat="43.42678" lon="5.44044">
        <ele>265.94</ele>
        <time>2020-05-27T17:10:00Z</time>
      </trkpt>
      <trkpt lat="43.42662" lon="5.44054">
        <ele>265.94</ele>
        <time>2020-05-27T17:10:13Z</time>
      </trkpt>
      <trkpt lat="43.42649" lon="5.44064">
        <ele>265.94</ele>
        <time>2020-05-27T17:10:24Z</time>
      </trkpt>
      <trkpt lat="43.42635" lon="5.44057">
        <ele>264.98</ele>
        <time>2020-05-27T17:10:38Z</time>
      </trkpt>
      <trkpt lat="43.42632" lon="5.44056">
        <ele>264.98</ele>
        <time>2020-05-27T17:10:41Z</time>
      </trkpt>
      <trkpt lat="43.42631" lon="5.44055">
        <ele>264.5</ele>
        <time>2020-05-27T17:10:42Z</time>
      </trkpt>
      <trkpt lat="43.42621" lon="5.44048">
        <ele>265.94</ele>
        <time>2020-05-27T17:10:51Z</time>
      </trkpt>
      <trkpt lat="43.42613" lon="5.44042">
        <ele>265.46</ele>
        <time>2020-05-27T17:10:59Z</time>
      </trkpt>
      <trkpt lat="43.42612" lon="5.44042">
        <ele>265.46</ele>
        <time>2020-05-27T17:11:00Z</time>
      </trkpt>
      <trkpt lat="43.42611" lon="5.44041">
        <ele>265.46</ele>
        <time>2020-05-27T17:11:01Z</time>
      </trkpt>
      <trkpt lat="43.42598" lon="5.44036">
        <ele>265.94</ele>
        <time>2020-05-27T17:11:13Z</time>
      </trkpt>
      <trkpt lat="43.42585" lon="5.44032">
        <ele>267.86</ele>
        <time>2020-05-27T17:11:25Z</time>
      </trkpt>
      <trkpt lat="43.42575" lon="5.44034">
        <ele>269.79</ele>
        <time>2020-05-27T17:11:34Z</time>
      </trkpt>
      <trkpt lat="43.42561" lon="5.44033">
        <ele>273.63</ele>
        <time>2020-05-27T17:11:47Z</time>
      </trkpt>
      <trkpt lat="43.42544" lon="5.44036">
        <ele>277</ele>
        <time>2020-05-27T17:11:59Z</time>
      </trkpt>
      <trkpt lat="43.42532" lon="5.44037">
        <ele>278.92</ele>
        <time>2020-05-27T17:12:12Z</time>
      </trkpt>
      <trkpt lat="43.42529" lon="5.44035">
        <ele>278.92</ele>
        <time>2020-05-27T17:12:19Z</time>
      </trkpt>
      <trkpt lat="43.42528" lon="5.44034">
        <ele>278.92</ele>
        <time>2020-05-27T17:12:20Z</time>
      </trkpt>
      <trkpt lat="43.42517" lon="5.44026">
        <ele>280.36</ele>
        <time>2020-05-27T17:12:32Z</time>
      </trkpt>
      <trkpt lat="43.42499" lon="5.44025">
        <ele>281.8</ele>
        <time>2020-05-27T17:12:47Z</time>
      </trkpt>
      <trkpt lat="43.42491" lon="5.44014">
        <ele>281.8</ele>
        <time>2020-05-27T17:13:00Z</time>
      </trkpt>
      <trkpt lat="43.42489" lon="5.4401">
        <ele>282.28</ele>
        <time>2020-05-27T17:13:03Z</time>
      </trkpt>
      <trkpt lat="43.42488" lon="5.43999">
        <ele>283.25</ele>
        <time>2020-05-27T17:13:10Z</time>
      </trkpt>
      <trkpt lat="43.42483" lon="5.43983">
        <ele>286.13</ele>
        <time>2020-05-27T17:13:21Z</time>
      </trkpt>
      <trkpt lat="43.4248" lon="5.43969">
        <ele>287.09</ele>
        <time>2020-05-27T17:13:31Z</time>
      </trkpt>
      <trkpt lat="43.42478" lon="5.43957">
        <ele>290.46</ele>
        <time>2020-05-27T17:13:41Z</time>
      </trkpt>
      <trkpt lat="43.42478" lon="5.43943">
        <ele>292.86</ele>
        <time>2020-05-27T17:13:53Z</time>
      </trkpt>
      <trkpt lat="43.42472" lon="5.43928">
        <ele>292.86</ele>
        <time>2020-05-27T17:14:05Z</time>
      </trkpt>
      <trkpt lat="43.42468" lon="5.43918">
        <ele>297.67</ele>
        <time>2020-05-27T17:14:13Z</time>
      </trkpt>
      <trkpt lat="43.42463" lon="5.43904">
        <ele>298.63</ele>
        <time>2020-05-27T17:14:23Z</time>
      </trkpt>
      <trkpt lat="43.42458" lon="5.43893">
        <ele>305.84</ele>
        <time>2020-05-27T17:14:35Z</time>
      </trkpt>
      <trkpt lat="43.42456" lon="5.43879">
        <ele>309.68</ele>
        <time>2020-05-27T17:14:48Z</time>
      </trkpt>
      <trkpt lat="43.42459" lon="5.43865">
        <ele>311.6</ele>
        <time>2020-05-27T17:15:00Z</time>
      </trkpt>
      <trkpt lat="43.42461" lon="5.43853">
        <ele>314.01</ele>
        <time>2020-05-27T17:15:14Z</time>
      </trkpt>
      <trkpt lat="43.42462" lon="5.43851">
        <ele>313.05</ele>
        <time>2020-05-27T17:15:16Z</time>
      </trkpt>
      <trkpt lat="43.42464" lon="5.43838">
        <ele>313.05</ele>
        <time>2020-05-27T17:15:26Z</time>
      </trkpt>
      <trkpt lat="43.42463" lon="5.43829">
        <ele>313.05</ele>
        <time>2020-05-27T17:15:32Z</time>
      </trkpt>
      <trkpt lat="43.42463" lon="5.43813">
        <ele>314.01</ele>
        <time>2020-05-27T17:15:45Z</time>
      </trkpt>
      <trkpt lat="43.42461" lon="5.43794">
        <ele>316.41</ele>
        <time>2020-05-27T17:15:58Z</time>
      </trkpt>
      <trkpt lat="43.42458" lon="5.4377">
        <ele>323.14</ele>
        <time>2020-05-27T17:16:13Z</time>
      </trkpt>
      <trkpt lat="43.42454" lon="5.43759">
        <ele>325.54</ele>
        <time>2020-05-27T17:16:23Z</time>
      </trkpt>
      <trkpt lat="43.42452" lon="5.43756">
        <ele>326.99</ele>
        <time>2020-05-27T17:16:26Z</time>
      </trkpt>
      <trkpt lat="43.42447" lon="5.43743">
        <ele>329.87</ele>
        <time>2020-05-27T17:16:37Z</time>
      </trkpt>
      <trkpt lat="43.42446" lon="5.43733">
        <ele>332.75</ele>
        <time>2020-05-27T17:16:46Z</time>
      </trkpt>
      <trkpt lat="43.42445" lon="5.43721">
        <ele>333.71</ele>
        <time>2020-05-27T17:16:54Z</time>
      </trkpt>
      <trkpt lat="43.42443" lon="5.43719">
        <ele>333.71</ele>
        <time>2020-05-27T17:16:55Z</time>
      </trkpt>
      <trkpt lat="43.42438" lon="5.43709">
        <ele>334.2</ele>
        <time>2020-05-27T17:17:05Z</time>
      </trkpt>
      <trkpt lat="43.42429" lon="5.43696">
        <ele>334.2</ele>
        <time>2020-05-27T17:17:14Z</time>
      </trkpt>
      <trkpt lat="43.42424" lon="5.43681">
        <ele>334.2</ele>
        <time>2020-05-27T17:17:25Z</time>
      </trkpt>
      <trkpt lat="43.42423" lon="5.43674">
        <ele>334.68</ele>
        <time>2020-05-27T17:17:30Z</time>
      </trkpt>
      <trkpt lat="43.42419" lon="5.43659">
        <ele>335.64</ele>
        <time>2020-05-27T17:17:41Z</time>
      </trkpt>
      <trkpt lat="43.42418" lon="5.43658">
        <ele>335.16</ele>
        <time>2020-05-27T17:17:42Z</time>
      </trkpt>
      <trkpt lat="43.42413" lon="5.4365">
        <ele>334.68</ele>
        <time>2020-05-27T17:17:47Z</time>
      </trkpt>
      <trkpt lat="43.42409" lon="5.43632">
        <ele>336.12</ele>
        <time>2020-05-27T17:18:00Z</time>
      </trkpt>
      <trkpt lat="43.42407" lon="5.43627">
        <ele>336.6</ele>
        <time>2020-05-27T17:18:04Z</time>
      </trkpt>
      <trkpt lat="43.42403" lon="5.43613">
        <ele>337.08</ele>
        <time>2020-05-27T17:18:16Z</time>
      </trkpt>
      <trkpt lat="43.42402" lon="5.43612">
        <ele>337.08</ele>
        <time>2020-05-27T17:18:17Z</time>
      </trkpt>
      <trkpt lat="43.42402" lon="5.4361">
        <ele>337.56</ele>
        <time>2020-05-27T17:18:18Z</time>
      </trkpt>
      <trkpt lat="43.42401" lon="5.43608">
        <ele>337.56</ele>
        <time>2020-05-27T17:18:19Z</time>
      </trkpt>
      <trkpt lat="43.42399" lon="5.43594">
        <ele>339.96</ele>
        <time>2020-05-27T17:18:31Z</time>
      </trkpt>
      <trkpt lat="43.42393" lon="5.43577">
        <ele>344.29</ele>
        <time>2020-05-27T17:18:45Z</time>
      </trkpt>
      <trkpt lat="43.42388" lon="5.43558">
        <ele>347.17</ele>
        <time>2020-05-27T17:18:59Z</time>
      </trkpt>
      <trkpt lat="43.42388" lon="5.43542">
        <ele>347.17</ele>
        <time>2020-05-27T17:19:09Z</time>
      </trkpt>
      <trkpt lat="43.42388" lon="5.4354">
        <ele>347.17</ele>
        <time>2020-05-27T17:19:10Z</time>
      </trkpt>
      <trkpt lat="43.42387" lon="5.43539">
        <ele>347.17</ele>
        <time>2020-05-27T17:19:11Z</time>
      </trkpt>
      <trkpt lat="43.42387" lon="5.43537">
        <ele>347.17</ele>
        <time>2020-05-27T17:19:12Z</time>
      </trkpt>
      <trkpt lat="43.42386" lon="5.43534">
        <ele>346.21</ele>
        <time>2020-05-27T17:19:15Z</time>
      </trkpt>
      <trkpt lat="43.42385" lon="5.43533">
        <ele>346.69</ele>
        <time>2020-05-27T17:19:16Z</time>
      </trkpt>
      <trkpt lat="43.42378" lon="5.4353">
        <ele>348.62</ele>
        <time>2020-05-27T17:19:27Z</time>
      </trkpt>
      <trkpt lat="43.42377" lon="5.43532">
        <ele>349.58</ele>
        <time>2020-05-27T17:20:00Z</time>
      </trkpt>
      <trkpt lat="43.42374" lon="5.43531">
        <ele>349.1</ele>
        <time>2020-05-27T17:20:14Z</time>
      </trkpt>
      <trkpt lat="43.42373" lon="5.43529">
        <ele>344.77</ele>
        <time>2020-05-27T17:20:26Z</time>
      </trkpt>
      <trkpt lat="43.4237" lon="5.43537">
        <ele>345.25</ele>
        <time>2020-05-27T17:20:33Z</time>
      </trkpt>
      <trkpt lat="43.42366" lon="5.43556">
        <ele>347.17</ele>
        <time>2020-05-27T17:20:45Z</time>
      </trkpt>
      <trkpt lat="43.42366" lon="5.43568">
        <ele>348.13</ele>
        <time>2020-05-27T17:20:55Z</time>
      </trkpt>
      <trkpt lat="43.42366" lon="5.43577">
        <ele>348.13</ele>
        <time>2020-05-27T17:21:01Z</time>
      </trkpt>
      <trkpt lat="43.42365" lon="5.43579">
        <ele>348.13</ele>
        <time>2020-05-27T17:21:02Z</time>
      </trkpt>
      <trkpt lat="43.42361" lon="5.43599">
        <ele>352.94</ele>
        <time>2020-05-27T17:21:15Z</time>
      </trkpt>
      <trkpt lat="43.42357" lon="5.43621">
        <ele>354.86</ele>
        <time>2020-05-27T17:21:29Z</time>
      </trkpt>
      <trkpt lat="43.42354" lon="5.43641">
        <ele>354.38</ele>
        <time>2020-05-27T17:21:42Z</time>
      </trkpt>
      <trkpt lat="43.4235" lon="5.43656">
        <ele>354.86</ele>
        <time>2020-05-27T17:21:50Z</time>
      </trkpt>
      <trkpt lat="43.42349" lon="5.43658">
        <ele>354.86</ele>
        <time>2020-05-27T17:21:51Z</time>
      </trkpt>
      <trkpt lat="43.42349" lon="5.4366">
        <ele>354.86</ele>
        <time>2020-05-27T17:21:52Z</time>
      </trkpt>
      <trkpt lat="43.42348" lon="5.43662">
        <ele>354.86</ele>
        <time>2020-05-27T17:21:53Z</time>
      </trkpt>
      <trkpt lat="43.42348" lon="5.43664">
        <ele>354.86</ele>
        <time>2020-05-27T17:21:54Z</time>
      </trkpt>
      <trkpt lat="43.42343" lon="5.43689">
        <ele>354.38</ele>
        <time>2020-05-27T17:22:08Z</time>
      </trkpt>
      <trkpt lat="43.4234" lon="5.43717">
        <ele>356.79</ele>
        <time>2020-05-27T17:22:23Z</time>
      </trkpt>
      <trkpt lat="43.42335" lon="5.43744">
        <ele>359.19</ele>
        <time>2020-05-27T17:22:37Z</time>
      </trkpt>
      <trkpt lat="43.42333" lon="5.43776">
        <ele>364</ele>
        <time>2020-05-27T17:22:53Z</time>
      </trkpt>
      <trkpt lat="43.42328" lon="5.43796">
        <ele>364.48</ele>
        <time>2020-05-27T17:23:04Z</time>
      </trkpt>
      <trkpt lat="43.42327" lon="5.43798">
        <ele>364.48</ele>
        <time>2020-05-27T17:23:05Z</time>
      </trkpt>
      <trkpt lat="43.42326" lon="5.43799">
        <ele>364</ele>
        <time>2020-05-27T17:23:06Z</time>
      </trkpt>
      <trkpt lat="43.42309" lon="5.43812">
        <ele>360.63</ele>
        <time>2020-05-27T17:23:19Z</time>
      </trkpt>
      <trkpt lat="43.42291" lon="5.43831">
        <ele>359.19</ele>
        <time>2020-05-27T17:23:33Z</time>
      </trkpt>
      <trkpt lat="43.42288" lon="5.43837">
        <ele>358.71</ele>
        <time>2020-05-27T17:23:37Z</time>
      </trkpt>
      <trkpt lat="43.42281" lon="5.43847">
        <ele>358.23</ele>
        <time>2020-05-27T17:23:43Z</time>
      </trkpt>
      <trkpt lat="43.42263" lon="5.43869">
        <ele>356.31</ele>
        <time>2020-05-27T17:23:57Z</time>
      </trkpt>
      <trkpt lat="43.42241" lon="5.43884">
        <ele>355.83</ele>
        <time>2020-05-27T17:24:12Z</time>
      </trkpt>
      <trkpt lat="43.42216" lon="5.43892">
        <ele>356.31</ele>
        <time>2020-05-27T17:24:27Z</time>
      </trkpt>
      <trkpt lat="43.42194" lon="5.43901">
        <ele>357.27</ele>
        <time>2020-05-27T17:24:41Z</time>
      </trkpt>
      <trkpt lat="43.42173" lon="5.43913">
        <ele>360.15</ele>
        <time>2020-05-27T17:24:56Z</time>
      </trkpt>
      <trkpt lat="43.4215" lon="5.43922">
        <ele>359.67</ele>
        <time>2020-05-27T17:25:11Z</time>
      </trkpt>
      <trkpt lat="43.42128" lon="5.43934">
        <ele>362.55</ele>
        <time>2020-05-27T17:25:26Z</time>
      </trkpt>
      <trkpt lat="43.42108" lon="5.43939">
        <ele>362.55</ele>
        <time>2020-05-27T17:25:39Z</time>
      </trkpt>
      <trkpt lat="43.42095" lon="5.43939">
        <ele>362.07</ele>
        <time>2020-05-27T17:25:48Z</time>
      </trkpt>
      <trkpt lat="43.42093" lon="5.43938">
        <ele>362.07</ele>
        <time>2020-05-27T17:25:49Z</time>
      </trkpt>
      <trkpt lat="43.42091" lon="5.43938">
        <ele>362.07</ele>
        <time>2020-05-27T17:25:50Z</time>
      </trkpt>
      <trkpt lat="43.4209" lon="5.43939">
        <ele>362.07</ele>
        <time>2020-05-27T17:25:51Z</time>
      </trkpt>
      <trkpt lat="43.42089" lon="5.4394">
        <ele>362.07</ele>
        <time>2020-05-27T17:25:52Z</time>
      </trkpt>
      <trkpt lat="43.42087" lon="5.4394">
        <ele>362.55</ele>
        <time>2020-05-27T17:25:53Z</time>
      </trkpt>
      <trkpt lat="43.42076" lon="5.43943">
        <ele>364</ele>
        <time>2020-05-27T17:26:02Z</time>
      </trkpt>
      <trkpt lat="43.42073" lon="5.43945">
        <ele>364</ele>
        <time>2020-05-27T17:26:05Z</time>
      </trkpt>
      <trkpt lat="43.42072" lon="5.43945">
        <ele>364</ele>
        <time>2020-05-27T17:26:06Z</time>
      </trkpt>
      <trkpt lat="43.4207" lon="5.43945">
        <ele>364</ele>
        <time>2020-05-27T17:26:07Z</time>
      </trkpt>
      <trkpt lat="43.42069" lon="5.43945">
        <ele>364</ele>
        <time>2020-05-27T17:26:08Z</time>
      </trkpt>
      <trkpt lat="43.42055" lon="5.43949">
        <ele>366.4</ele>
        <time>2020-05-27T17:26:21Z</time>
      </trkpt>
      <trkpt lat="43.42045" lon="5.43951">
        <ele>366.4</ele>
        <time>2020-05-27T17:26:29Z</time>
      </trkpt>
      <trkpt lat="43.42044" lon="5.43951">
        <ele>366.4</ele>
        <time>2020-05-27T17:26:30Z</time>
      </trkpt>
      <trkpt lat="43.42029" lon="5.43951">
        <ele>369.28</ele>
        <time>2020-05-27T17:26:45Z</time>
      </trkpt>
      <trkpt lat="43.42028" lon="5.43952">
        <ele>369.76</ele>
        <time>2020-05-27T17:26:46Z</time>
      </trkpt>
      <trkpt lat="43.42025" lon="5.43952">
        <ele>369.76</ele>
        <time>2020-05-27T17:26:48Z</time>
      </trkpt>
      <trkpt lat="43.42012" lon="5.4395">
        <ele>371.21</ele>
        <time>2020-05-27T17:27:00Z</time>
      </trkpt>
      <trkpt lat="43.42009" lon="5.4395">
        <ele>372.17</ele>
        <time>2020-05-27T17:27:03Z</time>
      </trkpt>
      <trkpt lat="43.42008" lon="5.4395">
        <ele>372.17</ele>
        <time>2020-05-27T17:27:04Z</time>
      </trkpt>
      <trkpt lat="43.42007" lon="5.4395">
        <ele>372.65</ele>
        <time>2020-05-27T17:27:05Z</time>
      </trkpt>
      <trkpt lat="43.41992" lon="5.43951">
        <ele>375.05</ele>
        <time>2020-05-27T17:27:19Z</time>
      </trkpt>
      <trkpt lat="43.41983" lon="5.43953">
        <ele>376.01</ele>
        <time>2020-05-27T17:27:28Z</time>
      </trkpt>
      <trkpt lat="43.41974" lon="5.43955">
        <ele>376.97</ele>
        <time>2020-05-27T17:27:37Z</time>
      </trkpt>
      <trkpt lat="43.4197" lon="5.43955">
        <ele>376.01</ele>
        <time>2020-05-27T17:27:42Z</time>
      </trkpt>
      <trkpt lat="43.41962" lon="5.43954">
        <ele>376.49</ele>
        <time>2020-05-27T17:27:52Z</time>
      </trkpt>
      <trkpt lat="43.4196" lon="5.43944">
        <ele>377.94</ele>
        <time>2020-05-27T17:28:00Z</time>
      </trkpt>
      <trkpt lat="43.4196" lon="5.43943">
        <ele>377.94</ele>
        <time>2020-05-27T17:28:01Z</time>
      </trkpt>
      <trkpt lat="43.41961" lon="5.43942">
        <ele>378.42</ele>
        <time>2020-05-27T17:28:02Z</time>
      </trkpt>
      <trkpt lat="43.41964" lon="5.43934">
        <ele>378.42</ele>
        <time>2020-05-27T17:28:09Z</time>
      </trkpt>
      <trkpt lat="43.41965" lon="5.43912">
        <ele>376.01</ele>
        <time>2020-05-27T17:28:23Z</time>
      </trkpt>
      <trkpt lat="43.41966" lon="5.43909">
        <ele>376.01</ele>
        <time>2020-05-27T17:28:25Z</time>
      </trkpt>
      <trkpt lat="43.41976" lon="5.43891">
        <ele>374.57</ele>
        <time>2020-05-27T17:28:39Z</time>
      </trkpt>
      <trkpt lat="43.41978" lon="5.43889">
        <ele>374.09</ele>
        <time>2020-05-27T17:28:42Z</time>
      </trkpt>
      <trkpt lat="43.41979" lon="5.43888">
        <ele>373.61</ele>
        <time>2020-05-27T17:28:43Z</time>
      </trkpt>
      <trkpt lat="43.41997" lon="5.43883">
        <ele>369.28</ele>
        <time>2020-05-27T17:28:59Z</time>
      </trkpt>
      <trkpt lat="43.42001" lon="5.4388">
        <ele>368.32</ele>
        <time>2020-05-27T17:29:04Z</time>
      </trkpt>
      <trkpt lat="43.42012" lon="5.43859">
        <ele>365.92</ele>
        <time>2020-05-27T17:29:19Z</time>
      </trkpt>
      <trkpt lat="43.42022" lon="5.43835">
        <ele>362.07</ele>
        <time>2020-05-27T17:29:35Z</time>
      </trkpt>
      <trkpt lat="43.42028" lon="5.43806">
        <ele>356.79</ele>
        <time>2020-05-27T17:29:48Z</time>
      </trkpt>
      <trkpt lat="43.42038" lon="5.43777">
        <ele>352.94</ele>
        <time>2020-05-27T17:30:01Z</time>
      </trkpt>
      <trkpt lat="43.42043" lon="5.43751">
        <ele>351.02</ele>
        <time>2020-05-27T17:30:14Z</time>
      </trkpt>
      <trkpt lat="43.42046" lon="5.43719">
        <ele>349.58</ele>
        <time>2020-05-27T17:30:28Z</time>
      </trkpt>
      <trkpt lat="43.42053" lon="5.43683">
        <ele>353.42</ele>
        <time>2020-05-27T17:30:44Z</time>
      </trkpt>
      <trkpt lat="43.42058" lon="5.43656">
        <ele>351.5</ele>
        <time>2020-05-27T17:30:56Z</time>
      </trkpt>
      <trkpt lat="43.42059" lon="5.43654">
        <ele>351.5</ele>
        <time>2020-05-27T17:30:57Z</time>
      </trkpt>
      <trkpt lat="43.4206" lon="5.43653">
        <ele>351.5</ele>
        <time>2020-05-27T17:30:58Z</time>
      </trkpt>
      <trkpt lat="43.42065" lon="5.43635">
        <ele>353.42</ele>
        <time>2020-05-27T17:31:06Z</time>
      </trkpt>
      <trkpt lat="43.42067" lon="5.43619">
        <ele>354.86</ele>
        <time>2020-05-27T17:31:13Z</time>
      </trkpt>
      <trkpt lat="43.42067" lon="5.43616">
        <ele>354.86</ele>
        <time>2020-05-27T17:31:14Z</time>
      </trkpt>
      <trkpt lat="43.42067" lon="5.43614">
        <ele>355.34</ele>
        <time>2020-05-27T17:31:15Z</time>
      </trkpt>
      <trkpt lat="43.4207" lon="5.43589">
        <ele>356.79</ele>
        <time>2020-05-27T17:31:27Z</time>
      </trkpt>
      <trkpt lat="43.42076" lon="5.43563">
        <ele>357.27</ele>
        <time>2020-05-27T17:31:39Z</time>
      </trkpt>
      <trkpt lat="43.42078" lon="5.4354">
        <ele>358.23</ele>
        <time>2020-05-27T17:31:50Z</time>
      </trkpt>
      <trkpt lat="43.42079" lon="5.43538">
        <ele>358.23</ele>
        <time>2020-05-27T17:31:51Z</time>
      </trkpt>
      <trkpt lat="43.42079" lon="5.43537">
        <ele>358.71</ele>
        <time>2020-05-27T17:31:52Z</time>
      </trkpt>
      <trkpt lat="43.42079" lon="5.43535">
        <ele>358.71</ele>
        <time>2020-05-27T17:31:53Z</time>
      </trkpt>
      <trkpt lat="43.42079" lon="5.43532">
        <ele>359.19</ele>
        <time>2020-05-27T17:31:54Z</time>
      </trkpt>
      <trkpt lat="43.42078" lon="5.4353">
        <ele>359.19</ele>
        <time>2020-05-27T17:31:55Z</time>
      </trkpt>
      <trkpt lat="43.42078" lon="5.43528">
        <ele>359.19</ele>
        <time>2020-05-27T17:31:56Z</time>
      </trkpt>
      <trkpt lat="43.42078" lon="5.43504">
        <ele>361.59</ele>
        <time>2020-05-27T17:32:10Z</time>
      </trkpt>
      <trkpt lat="43.42077" lon="5.43493">
        <ele>362.55</ele>
        <time>2020-05-27T17:32:16Z</time>
      </trkpt>
      <trkpt lat="43.42077" lon="5.43491">
        <ele>362.55</ele>
        <time>2020-05-27T17:32:17Z</time>
      </trkpt>
      <trkpt lat="43.42077" lon="5.4349">
        <ele>362.55</ele>
        <time>2020-05-27T17:32:18Z</time>
      </trkpt>
      <trkpt lat="43.42078" lon="5.43461">
        <ele>362.07</ele>
        <time>2020-05-27T17:32:32Z</time>
      </trkpt>
      <trkpt lat="43.42078" lon="5.43433">
        <ele>363.52</ele>
        <time>2020-05-27T17:32:47Z</time>
      </trkpt>
      <trkpt lat="43.42076" lon="5.43412">
        <ele>364.48</ele>
        <time>2020-05-27T17:32:59Z</time>
      </trkpt>
      <trkpt lat="43.42078" lon="5.43402">
        <ele>363.52</ele>
        <time>2020-05-27T17:33:05Z</time>
      </trkpt>
      <trkpt lat="43.42079" lon="5.43401">
        <ele>363.52</ele>
        <time>2020-05-27T17:33:06Z</time>
      </trkpt>
      <trkpt lat="43.42081" lon="5.43399">
        <ele>363.52</ele>
        <time>2020-05-27T17:33:07Z</time>
      </trkpt>
      <trkpt lat="43.42081" lon="5.43397">
        <ele>364</ele>
        <time>2020-05-27T17:33:08Z</time>
      </trkpt>
      <trkpt lat="43.42082" lon="5.43396">
        <ele>364.48</ele>
        <time>2020-05-27T17:33:09Z</time>
      </trkpt>
      <trkpt lat="43.42091" lon="5.43371">
        <ele>362.55</ele>
        <time>2020-05-27T17:33:23Z</time>
      </trkpt>
      <trkpt lat="43.42097" lon="5.43348">
        <ele>360.63</ele>
        <time>2020-05-27T17:33:36Z</time>
      </trkpt>
      <trkpt lat="43.42098" lon="5.43317">
        <ele>354.38</ele>
        <time>2020-05-27T17:33:51Z</time>
      </trkpt>
      <trkpt lat="43.42094" lon="5.43282">
        <ele>350.06</ele>
        <time>2020-05-27T17:34:06Z</time>
      </trkpt>
      <trkpt lat="43.42086" lon="5.43258">
        <ele>352.94</ele>
        <time>2020-05-27T17:34:18Z</time>
      </trkpt>
      <trkpt lat="43.42083" lon="5.43228">
        <ele>356.31</ele>
        <time>2020-05-27T17:34:33Z</time>
      </trkpt>
      <trkpt lat="43.42082" lon="5.43209">
        <ele>354.86</ele>
        <time>2020-05-27T17:34:42Z</time>
      </trkpt>
      <trkpt lat="43.42083" lon="5.43207">
        <ele>354.38</ele>
        <time>2020-05-27T17:34:43Z</time>
      </trkpt>
      <trkpt lat="43.42082" lon="5.43173">
        <ele>351.5</ele>
        <time>2020-05-27T17:34:58Z</time>
      </trkpt>
      <trkpt lat="43.4208" lon="5.43141">
        <ele>348.62</ele>
        <time>2020-05-27T17:35:11Z</time>
      </trkpt>
      <trkpt lat="43.42079" lon="5.43139">
        <ele>348.62</ele>
        <time>2020-05-27T17:35:12Z</time>
      </trkpt>
      <trkpt lat="43.42074" lon="5.43108">
        <ele>347.17</ele>
        <time>2020-05-27T17:35:26Z</time>
      </trkpt>
      <trkpt lat="43.42072" lon="5.43076">
        <ele>347.65</ele>
        <time>2020-05-27T17:35:39Z</time>
      </trkpt>
      <trkpt lat="43.42075" lon="5.43046">
        <ele>345.73</ele>
        <time>2020-05-27T17:35:52Z</time>
      </trkpt>
      <trkpt lat="43.42074" lon="5.43044">
        <ele>345.25</ele>
        <time>2020-05-27T17:35:53Z</time>
      </trkpt>
      <trkpt lat="43.42072" lon="5.43043">
        <ele>344.77</ele>
        <time>2020-05-27T17:35:54Z</time>
      </trkpt>
      <trkpt lat="43.4207" lon="5.43043">
        <ele>344.77</ele>
        <time>2020-05-27T17:35:55Z</time>
      </trkpt>
      <trkpt lat="43.42068" lon="5.43043">
        <ele>344.77</ele>
        <time>2020-05-27T17:35:56Z</time>
      </trkpt>
      <trkpt lat="43.42049" lon="5.43035">
        <ele>342.37</ele>
        <time>2020-05-27T17:36:09Z</time>
      </trkpt>
      <trkpt lat="43.42043" lon="5.43009">
        <ele>341.89</ele>
        <time>2020-05-27T17:36:21Z</time>
      </trkpt>
      <trkpt lat="43.42039" lon="5.42997">
        <ele>341.89</ele>
        <time>2020-05-27T17:36:27Z</time>
      </trkpt>
      <trkpt lat="43.42039" lon="5.42996">
        <ele>341.89</ele>
        <time>2020-05-27T17:36:28Z</time>
      </trkpt>
      <trkpt lat="43.42039" lon="5.42994">
        <ele>341.89</ele>
        <time>2020-05-27T17:36:29Z</time>
      </trkpt>
      <trkpt lat="43.42039" lon="5.42992">
        <ele>342.37</ele>
        <time>2020-05-27T17:36:30Z</time>
      </trkpt>
      <trkpt lat="43.42038" lon="5.4299">
        <ele>342.37</ele>
        <time>2020-05-27T17:36:31Z</time>
      </trkpt>
      <trkpt lat="43.42037" lon="5.42988">
        <ele>342.37</ele>
        <time>2020-05-27T17:36:32Z</time>
      </trkpt>
      <trkpt lat="43.42036" lon="5.42986">
        <ele>342.37</ele>
        <time>2020-05-27T17:36:33Z</time>
      </trkpt>
      <trkpt lat="43.42034" lon="5.42983">
        <ele>342.37</ele>
        <time>2020-05-27T17:36:34Z</time>
      </trkpt>
      <trkpt lat="43.42013" lon="5.42961">
        <ele>344.29</ele>
        <time>2020-05-27T17:36:50Z</time>
      </trkpt>
      <trkpt lat="43.42002" lon="5.42948">
        <ele>346.21</ele>
        <time>2020-05-27T17:37:02Z</time>
      </trkpt>
      <trkpt lat="43.41996" lon="5.42942">
        <ele>346.69</ele>
        <time>2020-05-27T17:37:08Z</time>
      </trkpt>
      <trkpt lat="43.41996" lon="5.4294">
        <ele>346.69</ele>
        <time>2020-05-27T17:37:09Z</time>
      </trkpt>
      <trkpt lat="43.41995" lon="5.42939">
        <ele>346.69</ele>
        <time>2020-05-27T17:37:10Z</time>
      </trkpt>
      <trkpt lat="43.41994" lon="5.42937">
        <ele>346.69</ele>
        <time>2020-05-27T17:37:11Z</time>
      </trkpt>
      <trkpt lat="43.41993" lon="5.42936">
        <ele>347.17</ele>
        <time>2020-05-27T17:37:12Z</time>
      </trkpt>
      <trkpt lat="43.41977" lon="5.42922">
        <ele>346.69</ele>
        <time>2020-05-27T17:37:27Z</time>
      </trkpt>
      <trkpt lat="43.41962" lon="5.42902">
        <ele>347.17</ele>
        <time>2020-05-27T17:37:43Z</time>
      </trkpt>
      <trkpt lat="43.41952" lon="5.42884">
        <ele>350.54</ele>
        <time>2020-05-27T17:37:57Z</time>
      </trkpt>
      <trkpt lat="43.41937" lon="5.42868">
        <ele>351.02</ele>
        <time>2020-05-27T17:38:11Z</time>
      </trkpt>
      <trkpt lat="43.41925" lon="5.42859">
        <ele>349.58</ele>
        <time>2020-05-27T17:38:21Z</time>
      </trkpt>
      <trkpt lat="43.41922" lon="5.42857">
        <ele>349.58</ele>
        <time>2020-05-27T17:38:23Z</time>
      </trkpt>
      <trkpt lat="43.41921" lon="5.42856">
        <ele>349.58</ele>
        <time>2020-05-27T17:38:24Z</time>
      </trkpt>
      <trkpt lat="43.41916" lon="5.42853">
        <ele>349.58</ele>
        <time>2020-05-27T17:38:29Z</time>
      </trkpt>
      <trkpt lat="43.41914" lon="5.42852">
        <ele>349.58</ele>
        <time>2020-05-27T17:38:30Z</time>
      </trkpt>
      <trkpt lat="43.41903" lon="5.42847">
        <ele>349.58</ele>
        <time>2020-05-27T17:38:39Z</time>
      </trkpt>
      <trkpt lat="43.41883" lon="5.42839">
        <ele>348.62</ele>
        <time>2020-05-27T17:38:55Z</time>
      </trkpt>
      <trkpt lat="43.41863" lon="5.42833">
        <ele>345.25</ele>
        <time>2020-05-27T17:39:11Z</time>
      </trkpt>
      <trkpt lat="43.41845" lon="5.42835">
        <ele>342.37</ele>
        <time>2020-05-27T17:39:25Z</time>
      </trkpt>
      <trkpt lat="43.41828" lon="5.4284">
        <ele>340.92</ele>
        <time>2020-05-27T17:39:38Z</time>
      </trkpt>
      <trkpt lat="43.41827" lon="5.4284">
        <ele>340.44</ele>
        <time>2020-05-27T17:39:39Z</time>
      </trkpt>
      <trkpt lat="43.41825" lon="5.42841">
        <ele>340.44</ele>
        <time>2020-05-27T17:39:40Z</time>
      </trkpt>
      <trkpt lat="43.41808" lon="5.42836">
        <ele>337.56</ele>
        <time>2020-05-27T17:39:53Z</time>
      </trkpt>
      <trkpt lat="43.41797" lon="5.42823">
        <ele>335.64</ele>
        <time>2020-05-27T17:40:06Z</time>
      </trkpt>
      <trkpt lat="43.41795" lon="5.42822">
        <ele>335.16</ele>
        <time>2020-05-27T17:40:08Z</time>
      </trkpt>
      <trkpt lat="43.41794" lon="5.42821">
        <ele>335.16</ele>
        <time>2020-05-27T17:40:09Z</time>
      </trkpt>
      <trkpt lat="43.41789" lon="5.42818">
        <ele>335.16</ele>
        <time>2020-05-27T17:40:13Z</time>
      </trkpt>
      <trkpt lat="43.41786" lon="5.42816">
        <ele>335.16</ele>
        <time>2020-05-27T17:40:15Z</time>
      </trkpt>
      <trkpt lat="43.4177" lon="5.42802">
        <ele>335.16</ele>
        <time>2020-05-27T17:40:27Z</time>
      </trkpt>
      <trkpt lat="43.4177" lon="5.428">
        <ele>335.16</ele>
        <time>2020-05-27T17:40:28Z</time>
      </trkpt>
      <trkpt lat="43.4177" lon="5.42799">
        <ele>335.16</ele>
        <time>2020-05-27T17:40:29Z</time>
      </trkpt>
      <trkpt lat="43.41768" lon="5.4277">
        <ele>335.16</ele>
        <time>2020-05-27T17:40:43Z</time>
      </trkpt>
      <trkpt lat="43.41765" lon="5.4276">
        <ele>336.12</ele>
        <time>2020-05-27T17:40:48Z</time>
      </trkpt>
      <trkpt lat="43.41753" lon="5.42736">
        <ele>334.68</ele>
        <time>2020-05-27T17:41:02Z</time>
      </trkpt>
      <trkpt lat="43.41739" lon="5.42718">
        <ele>331.79</ele>
        <time>2020-05-27T17:41:16Z</time>
      </trkpt>
      <trkpt lat="43.41731" lon="5.42717">
        <ele>329.39</ele>
        <time>2020-05-27T17:41:20Z</time>
      </trkpt>
      <trkpt lat="43.41709" lon="5.42728">
        <ele>322.18</ele>
        <time>2020-05-27T17:41:34Z</time>
      </trkpt>
      <trkpt lat="43.41693" lon="5.42746">
        <ele>318.33</ele>
        <time>2020-05-27T17:41:47Z</time>
      </trkpt>
      <trkpt lat="43.41691" lon="5.4275">
        <ele>316.89</ele>
        <time>2020-05-27T17:41:50Z</time>
      </trkpt>
      <trkpt lat="43.41689" lon="5.4275">
        <ele>316.41</ele>
        <time>2020-05-27T17:41:51Z</time>
      </trkpt>
      <trkpt lat="43.41687" lon="5.4275">
        <ele>315.93</ele>
        <time>2020-05-27T17:41:52Z</time>
      </trkpt>
      <trkpt lat="43.41679" lon="5.4275">
        <ele>314.01</ele>
        <time>2020-05-27T17:41:58Z</time>
      </trkpt>
      <trkpt lat="43.41678" lon="5.42749">
        <ele>314.01</ele>
        <time>2020-05-27T17:41:59Z</time>
      </trkpt>
      <trkpt lat="43.41676" lon="5.42748">
        <ele>314.01</ele>
        <time>2020-05-27T17:42:00Z</time>
      </trkpt>
      <trkpt lat="43.41675" lon="5.42747">
        <ele>313.53</ele>
        <time>2020-05-27T17:42:01Z</time>
      </trkpt>
      <trkpt lat="43.41673" lon="5.42747">
        <ele>313.53</ele>
        <time>2020-05-27T17:42:02Z</time>
      </trkpt>
      <trkpt lat="43.41672" lon="5.42746">
        <ele>313.05</ele>
        <time>2020-05-27T17:42:03Z</time>
      </trkpt>
      <trkpt lat="43.4167" lon="5.42745">
        <ele>313.05</ele>
        <time>2020-05-27T17:42:04Z</time>
      </trkpt>
      <trkpt lat="43.41651" lon="5.42744">
        <ele>310.64</ele>
        <time>2020-05-27T17:42:19Z</time>
      </trkpt>
      <trkpt lat="43.41645" lon="5.42732">
        <ele>309.68</ele>
        <time>2020-05-27T17:42:30Z</time>
      </trkpt>
      <trkpt lat="43.41643" lon="5.4271">
        <ele>308.24</ele>
        <time>2020-05-27T17:42:46Z</time>
      </trkpt>
      <trkpt lat="43.41642" lon="5.42699">
        <ele>308.24</ele>
        <time>2020-05-27T17:42:53Z</time>
      </trkpt>
      <trkpt lat="43.41645" lon="5.42696">
        <ele>308.72</ele>
        <time>2020-05-27T17:42:57Z</time>
      </trkpt>
      <trkpt lat="43.41659" lon="5.42694">
        <ele>309.2</ele>
        <time>2020-05-27T17:43:11Z</time>
      </trkpt>
      <trkpt lat="43.41677" lon="5.42679">
        <ele>304.88</ele>
        <time>2020-05-27T17:43:26Z</time>
      </trkpt>
      <trkpt lat="43.41679" lon="5.42677">
        <ele>304.88</ele>
        <time>2020-05-27T17:43:28Z</time>
      </trkpt>
      <trkpt lat="43.4168" lon="5.42675">
        <ele>305.36</ele>
        <time>2020-05-27T17:43:29Z</time>
      </trkpt>
      <trkpt lat="43.41682" lon="5.42669">
        <ele>305.84</ele>
        <time>2020-05-27T17:43:33Z</time>
      </trkpt>
      <trkpt lat="43.41682" lon="5.42668">
        <ele>305.36</ele>
        <time>2020-05-27T17:43:34Z</time>
      </trkpt>
      <trkpt lat="43.41686" lon="5.42657">
        <ele>304.39</ele>
        <time>2020-05-27T17:43:41Z</time>
      </trkpt>
      <trkpt lat="43.41687" lon="5.42637">
        <ele>303.43</ele>
        <time>2020-05-27T17:43:53Z</time>
      </trkpt>
      <trkpt lat="43.4169" lon="5.42632">
        <ele>303.43</ele>
        <time>2020-05-27T17:43:57Z</time>
      </trkpt>
      <trkpt lat="43.41691" lon="5.4263">
        <ele>303.43</ele>
        <time>2020-05-27T17:43:58Z</time>
      </trkpt>
      <trkpt lat="43.41699" lon="5.4262">
        <ele>303.43</ele>
        <time>2020-05-27T17:44:10Z</time>
      </trkpt>
      <trkpt lat="43.41701" lon="5.4262">
        <ele>303.91</ele>
        <time>2020-05-27T17:44:12Z</time>
      </trkpt>
      <trkpt lat="43.41714" lon="5.42618">
        <ele>299.11</ele>
        <time>2020-05-27T17:44:25Z</time>
      </trkpt>
      <trkpt lat="43.41729" lon="5.4262">
        <ele>296.22</ele>
        <time>2020-05-27T17:44:41Z</time>
      </trkpt>
      <trkpt lat="43.41744" lon="5.42624">
        <ele>292.38</ele>
        <time>2020-05-27T17:44:54Z</time>
      </trkpt>
      <trkpt lat="43.41751" lon="5.42629">
        <ele>291.42</ele>
        <time>2020-05-27T17:45:01Z</time>
      </trkpt>
      <trkpt lat="43.41753" lon="5.4263">
        <ele>291.9</ele>
        <time>2020-05-27T17:45:03Z</time>
      </trkpt>
      <trkpt lat="43.41766" lon="5.4264">
        <ele>291.9</ele>
        <time>2020-05-27T17:45:15Z</time>
      </trkpt>
      <trkpt lat="43.41781" lon="5.42644">
        <ele>292.38</ele>
        <time>2020-05-27T17:45:28Z</time>
      </trkpt>
      <trkpt lat="43.418" lon="5.42641">
        <ele>289.97</ele>
        <time>2020-05-27T17:45:41Z</time>
      </trkpt>
      <trkpt lat="43.41818" lon="5.42639">
        <ele>290.46</ele>
        <time>2020-05-27T17:45:52Z</time>
      </trkpt>
      <trkpt lat="43.41833" lon="5.42625">
        <ele>291.42</ele>
        <time>2020-05-27T17:46:05Z</time>
      </trkpt>
      <trkpt lat="43.41838" lon="5.42621">
        <ele>290.94</ele>
        <time>2020-05-27T17:46:09Z</time>
      </trkpt>
      <trkpt lat="43.41849" lon="5.42607">
        <ele>289.01</ele>
        <time>2020-05-27T17:46:20Z</time>
      </trkpt>
      <trkpt lat="43.41856" lon="5.42599">
        <ele>288.53</ele>
        <time>2020-05-27T17:46:27Z</time>
      </trkpt>
      <trkpt lat="43.41857" lon="5.42599">
        <ele>288.53</ele>
        <time>2020-05-27T17:46:28Z</time>
      </trkpt>
      <trkpt lat="43.41858" lon="5.42598">
        <ele>288.53</ele>
        <time>2020-05-27T17:46:29Z</time>
      </trkpt>
      <trkpt lat="43.41859" lon="5.42597">
        <ele>288.53</ele>
        <time>2020-05-27T17:46:30Z</time>
      </trkpt>
      <trkpt lat="43.41861" lon="5.42596">
        <ele>288.53</ele>
        <time>2020-05-27T17:46:31Z</time>
      </trkpt>
      <trkpt lat="43.41873" lon="5.42583">
        <ele>287.09</ele>
        <time>2020-05-27T17:46:42Z</time>
      </trkpt>
      <trkpt lat="43.41874" lon="5.42582">
        <ele>286.61</ele>
        <time>2020-05-27T17:46:43Z</time>
      </trkpt>
      <trkpt lat="43.41875" lon="5.42581">
        <ele>286.61</ele>
        <time>2020-05-27T17:46:44Z</time>
      </trkpt>
      <trkpt lat="43.41877" lon="5.4258">
        <ele>286.61</ele>
        <time>2020-05-27T17:46:45Z</time>
      </trkpt>
      <trkpt lat="43.41886" lon="5.42578">
        <ele>287.09</ele>
        <time>2020-05-27T17:46:53Z</time>
      </trkpt>
      <trkpt lat="43.41887" lon="5.42578">
        <ele>287.09</ele>
        <time>2020-05-27T17:46:54Z</time>
      </trkpt>
      <trkpt lat="43.41889" lon="5.42578">
        <ele>287.09</ele>
        <time>2020-05-27T17:46:55Z</time>
      </trkpt>
      <trkpt lat="43.4189" lon="5.42578">
        <ele>287.09</ele>
        <time>2020-05-27T17:46:56Z</time>
      </trkpt>
      <trkpt lat="43.41891" lon="5.42578">
        <ele>287.09</ele>
        <time>2020-05-27T17:46:57Z</time>
      </trkpt>
      <trkpt lat="43.41893" lon="5.42578">
        <ele>287.09</ele>
        <time>2020-05-27T17:46:58Z</time>
      </trkpt>
      <trkpt lat="43.41908" lon="5.42578">
        <ele>289.49</ele>
        <time>2020-05-27T17:47:11Z</time>
      </trkpt>
      <trkpt lat="43.41923" lon="5.42567">
        <ele>284.69</ele>
        <time>2020-05-27T17:47:23Z</time>
      </trkpt>
      <trkpt lat="43.41925" lon="5.42566">
        <ele>284.69</ele>
        <time>2020-05-27T17:47:24Z</time>
      </trkpt>
      <trkpt lat="43.41938" lon="5.42546">
        <ele>284.21</ele>
        <time>2020-05-27T17:47:39Z</time>
      </trkpt>
      <trkpt lat="43.41939" lon="5.42542">
        <ele>282.77</ele>
        <time>2020-05-27T17:47:41Z</time>
      </trkpt>
      <trkpt lat="43.4194" lon="5.42541">
        <ele>282.28</ele>
        <time>2020-05-27T17:47:42Z</time>
      </trkpt>
      <trkpt lat="43.4194" lon="5.42539">
        <ele>281.8</ele>
        <time>2020-05-27T17:47:43Z</time>
      </trkpt>
      <trkpt lat="43.41944" lon="5.42528">
        <ele>279.88</ele>
        <time>2020-05-27T17:47:50Z</time>
      </trkpt>
      <trkpt lat="43.41945" lon="5.42526">
        <ele>279.4</ele>
        <time>2020-05-27T17:47:51Z</time>
      </trkpt>
      <trkpt lat="43.41947" lon="5.42524">
        <ele>278.92</ele>
        <time>2020-05-27T17:47:53Z</time>
      </trkpt>
      <trkpt lat="43.41947" lon="5.42522">
        <ele>278.92</ele>
        <time>2020-05-27T17:47:54Z</time>
      </trkpt>
      <trkpt lat="43.41956" lon="5.425">
        <ele>277</ele>
        <time>2020-05-27T17:48:09Z</time>
      </trkpt>
      <trkpt lat="43.41967" lon="5.4249">
        <ele>277.96</ele>
        <time>2020-05-27T17:48:22Z</time>
      </trkpt>
      <trkpt lat="43.41969" lon="5.4249">
        <ele>277.96</ele>
        <time>2020-05-27T17:48:24Z</time>
      </trkpt>
      <trkpt lat="43.41971" lon="5.4249">
        <ele>277.96</ele>
        <time>2020-05-27T17:48:25Z</time>
      </trkpt>
      <trkpt lat="43.41984" lon="5.42492">
        <ele>277</ele>
        <time>2020-05-27T17:48:38Z</time>
      </trkpt>
      <trkpt lat="43.41995" lon="5.42491">
        <ele>275.07</ele>
        <time>2020-05-27T17:48:47Z</time>
      </trkpt>
      <trkpt lat="43.41999" lon="5.42485">
        <ele>274.59</ele>
        <time>2020-05-27T17:48:52Z</time>
      </trkpt>
      <trkpt lat="43.42" lon="5.42484">
        <ele>274.59</ele>
        <time>2020-05-27T17:48:53Z</time>
      </trkpt>
      <trkpt lat="43.42005" lon="5.42477">
        <ele>274.11</ele>
        <time>2020-05-27T17:48:58Z</time>
      </trkpt>
      <trkpt lat="43.42006" lon="5.42476">
        <ele>274.11</ele>
        <time>2020-05-27T17:48:59Z</time>
      </trkpt>
      <trkpt lat="43.42023" lon="5.42461">
        <ele>270.75</ele>
        <time>2020-05-27T17:49:13Z</time>
      </trkpt>
      <trkpt lat="43.42029" lon="5.42449">
        <ele>270.27</ele>
        <time>2020-05-27T17:49:21Z</time>
      </trkpt>
      <trkpt lat="43.4203" lon="5.42444">
        <ele>270.27</ele>
        <time>2020-05-27T17:49:25Z</time>
      </trkpt>
      <trkpt lat="43.42031" lon="5.42442">
        <ele>270.27</ele>
        <time>2020-05-27T17:49:26Z</time>
      </trkpt>
      <trkpt lat="43.42032" lon="5.42441">
        <ele>270.27</ele>
        <time>2020-05-27T17:49:27Z</time>
      </trkpt>
      <trkpt lat="43.42038" lon="5.42427">
        <ele>271.23</ele>
        <time>2020-05-27T17:49:37Z</time>
      </trkpt>
      <trkpt lat="43.42039" lon="5.42425">
        <ele>271.71</ele>
        <time>2020-05-27T17:49:38Z</time>
      </trkpt>
      <trkpt lat="43.42045" lon="5.42417">
        <ele>269.79</ele>
        <time>2020-05-27T17:49:47Z</time>
      </trkpt>
      <trkpt lat="43.42046" lon="5.42416">
        <ele>269.79</ele>
        <time>2020-05-27T17:49:48Z</time>
      </trkpt>
      <trkpt lat="43.42051" lon="5.42415">
        <ele>269.31</ele>
        <time>2020-05-27T17:49:54Z</time>
      </trkpt>
      <trkpt lat="43.42055" lon="5.42416">
        <ele>269.31</ele>
        <time>2020-05-27T17:49:57Z</time>
      </trkpt>
      <trkpt lat="43.42065" lon="5.42427">
        <ele>269.79</ele>
        <time>2020-05-27T17:50:09Z</time>
      </trkpt>
      <trkpt lat="43.42079" lon="5.42439">
        <ele>273.63</ele>
        <time>2020-05-27T17:50:22Z</time>
      </trkpt>
      <trkpt lat="43.42094" lon="5.42452">
        <ele>277</ele>
        <time>2020-05-27T17:50:35Z</time>
      </trkpt>
      <trkpt lat="43.42098" lon="5.42456">
        <ele>277.96</ele>
        <time>2020-05-27T17:50:39Z</time>
      </trkpt>
      <trkpt lat="43.42112" lon="5.4246">
        <ele>277.96</ele>
        <time>2020-05-27T17:50:51Z</time>
      </trkpt>
      <trkpt lat="43.42133" lon="5.4246">
        <ele>277</ele>
        <time>2020-05-27T17:51:04Z</time>
      </trkpt>
      <trkpt lat="43.42147" lon="5.42463">
        <ele>275.56</ele>
        <time>2020-05-27T17:51:13Z</time>
      </trkpt>
      <trkpt lat="43.42149" lon="5.42463">
        <ele>275.56</ele>
        <time>2020-05-27T17:51:14Z</time>
      </trkpt>
      <trkpt lat="43.42163" lon="5.42453">
        <ele>272.67</ele>
        <time>2020-05-27T17:51:25Z</time>
      </trkpt>
      <trkpt lat="43.42165" lon="5.42453">
        <ele>272.67</ele>
        <time>2020-05-27T17:51:26Z</time>
      </trkpt>
      <trkpt lat="43.42166" lon="5.42452">
        <ele>272.19</ele>
        <time>2020-05-27T17:51:27Z</time>
      </trkpt>
      <trkpt lat="43.42168" lon="5.42451">
        <ele>271.23</ele>
        <time>2020-05-27T17:51:28Z</time>
      </trkpt>
      <trkpt lat="43.42169" lon="5.4245">
        <ele>271.23</ele>
        <time>2020-05-27T17:51:29Z</time>
      </trkpt>
      <trkpt lat="43.4217" lon="5.42449">
        <ele>271.23</ele>
        <time>2020-05-27T17:51:30Z</time>
      </trkpt>
      <trkpt lat="43.42172" lon="5.42448">
        <ele>270.75</ele>
        <time>2020-05-27T17:51:31Z</time>
      </trkpt>
      <trkpt lat="43.42173" lon="5.42446">
        <ele>270.75</ele>
        <time>2020-05-27T17:51:32Z</time>
      </trkpt>
      <trkpt lat="43.42186" lon="5.42433">
        <ele>269.79</ele>
        <time>2020-05-27T17:51:44Z</time>
      </trkpt>
      <trkpt lat="43.42188" lon="5.42431">
        <ele>269.79</ele>
        <time>2020-05-27T17:51:45Z</time>
      </trkpt>
      <trkpt lat="43.42189" lon="5.42429">
        <ele>269.31</ele>
        <time>2020-05-27T17:51:46Z</time>
      </trkpt>
      <trkpt lat="43.4219" lon="5.42428">
        <ele>269.31</ele>
        <time>2020-05-27T17:51:47Z</time>
      </trkpt>
      <trkpt lat="43.42192" lon="5.42427">
        <ele>268.83</ele>
        <time>2020-05-27T17:51:48Z</time>
      </trkpt>
      <trkpt lat="43.42205" lon="5.4241">
        <ele>267.38</ele>
        <time>2020-05-27T17:52:01Z</time>
      </trkpt>
      <trkpt lat="43.42217" lon="5.42386">
        <ele>265.46</ele>
        <time>2020-05-27T17:52:15Z</time>
      </trkpt>
      <trkpt lat="43.42219" lon="5.42383">
        <ele>265.46</ele>
        <time>2020-05-27T17:52:17Z</time>
      </trkpt>
      <trkpt lat="43.42226" lon="5.42375">
        <ele>263.54</ele>
        <time>2020-05-27T17:52:23Z</time>
      </trkpt>
      <trkpt lat="43.42227" lon="5.42374">
        <ele>263.54</ele>
        <time>2020-05-27T17:52:24Z</time>
      </trkpt>
      <trkpt lat="43.42228" lon="5.42373">
        <ele>263.54</ele>
        <time>2020-05-27T17:52:25Z</time>
      </trkpt>
      <trkpt lat="43.42231" lon="5.42371">
        <ele>262.1</ele>
        <time>2020-05-27T17:52:28Z</time>
      </trkpt>
      <trkpt lat="43.42232" lon="5.42371">
        <ele>261.62</ele>
        <time>2020-05-27T17:52:29Z</time>
      </trkpt>
      <trkpt lat="43.42241" lon="5.42363">
        <ele>260.17</ele>
        <time>2020-05-27T17:52:37Z</time>
      </trkpt>
      <trkpt lat="43.42242" lon="5.42362">
        <ele>259.69</ele>
        <time>2020-05-27T17:52:38Z</time>
      </trkpt>
      <trkpt lat="43.42245" lon="5.42357">
        <ele>260.17</ele>
        <time>2020-05-27T17:52:42Z</time>
      </trkpt>
      <trkpt lat="43.42246" lon="5.42355">
        <ele>259.69</ele>
        <time>2020-05-27T17:52:43Z</time>
      </trkpt>
      <trkpt lat="43.42247" lon="5.42353">
        <ele>259.69</ele>
        <time>2020-05-27T17:52:44Z</time>
      </trkpt>
      <trkpt lat="43.42248" lon="5.42352">
        <ele>259.21</ele>
        <time>2020-05-27T17:52:45Z</time>
      </trkpt>
      <trkpt lat="43.4225" lon="5.4235">
        <ele>259.21</ele>
        <time>2020-05-27T17:52:46Z</time>
      </trkpt>
      <trkpt lat="43.4225" lon="5.42349">
        <ele>259.69</ele>
        <time>2020-05-27T17:52:47Z</time>
      </trkpt>
      <trkpt lat="43.42251" lon="5.42347">
        <ele>259.69</ele>
        <time>2020-05-27T17:52:48Z</time>
      </trkpt>
      <trkpt lat="43.42261" lon="5.4233">
        <ele>259.21</ele>
        <time>2020-05-27T17:52:59Z</time>
      </trkpt>
      <trkpt lat="43.42262" lon="5.42329">
        <ele>259.21</ele>
        <time>2020-05-27T17:53:00Z</time>
      </trkpt>
      <trkpt lat="43.42272" lon="5.42308">
        <ele>256.81</ele>
        <time>2020-05-27T17:53:12Z</time>
      </trkpt>
      <trkpt lat="43.42277" lon="5.42297">
        <ele>254.89</ele>
        <time>2020-05-27T17:53:20Z</time>
      </trkpt>
      <trkpt lat="43.42292" lon="5.42271">
        <ele>252.96</ele>
        <time>2020-05-27T17:53:37Z</time>
      </trkpt>
      <trkpt lat="43.42306" lon="5.42261">
        <ele>252.48</ele>
        <time>2020-05-27T17:53:51Z</time>
      </trkpt>
      <trkpt lat="43.42313" lon="5.4226">
        <ele>252.96</ele>
        <time>2020-05-27T17:53:56Z</time>
      </trkpt>
      <trkpt lat="43.42332" lon="5.42254">
        <ele>253.44</ele>
        <time>2020-05-27T17:54:11Z</time>
      </trkpt>
      <trkpt lat="43.42352" lon="5.42239">
        <ele>251.52</ele>
        <time>2020-05-27T17:54:27Z</time>
      </trkpt>
      <trkpt lat="43.42354" lon="5.42237">
        <ele>251.04</ele>
        <time>2020-05-27T17:54:29Z</time>
      </trkpt>
      <trkpt lat="43.42356" lon="5.42236">
        <ele>251.04</ele>
        <time>2020-05-27T17:54:30Z</time>
      </trkpt>
      <trkpt lat="43.42371" lon="5.42226">
        <ele>252</ele>
        <time>2020-05-27T17:54:42Z</time>
      </trkpt>
      <trkpt lat="43.42373" lon="5.42224">
        <ele>252</ele>
        <time>2020-05-27T17:54:43Z</time>
      </trkpt>
      <trkpt lat="43.42374" lon="5.42223">
        <ele>252.48</ele>
        <time>2020-05-27T17:54:44Z</time>
      </trkpt>
      <trkpt lat="43.42375" lon="5.42222">
        <ele>252.48</ele>
        <time>2020-05-27T17:54:45Z</time>
      </trkpt>
      <trkpt lat="43.42376" lon="5.4222">
        <ele>252.96</ele>
        <time>2020-05-27T17:54:46Z</time>
      </trkpt>
      <trkpt lat="43.42377" lon="5.42218">
        <ele>252.96</ele>
        <time>2020-05-27T17:54:47Z</time>
      </trkpt>
      <trkpt lat="43.42378" lon="5.42217">
        <ele>252.96</ele>
        <time>2020-05-27T17:54:48Z</time>
      </trkpt>
      <trkpt lat="43.42379" lon="5.42215">
        <ele>252.96</ele>
        <time>2020-05-27T17:54:49Z</time>
      </trkpt>
      <trkpt lat="43.42395" lon="5.42194">
        <ele>251.04</ele>
        <time>2020-05-27T17:55:05Z</time>
      </trkpt>
      <trkpt lat="43.42396" lon="5.42193">
        <ele>251.04</ele>
        <time>2020-05-27T17:55:06Z</time>
      </trkpt>
      <trkpt lat="43.42397" lon="5.42192">
        <ele>250.56</ele>
        <time>2020-05-27T17:55:07Z</time>
      </trkpt>
      <trkpt lat="43.42403" lon="5.42187">
        <ele>250.56</ele>
        <time>2020-05-27T17:55:13Z</time>
      </trkpt>
      <trkpt lat="43.42406" lon="5.42182">
        <ele>251.04</ele>
        <time>2020-05-27T17:55:17Z</time>
      </trkpt>
      <trkpt lat="43.42425" lon="5.42173">
        <ele>252.48</ele>
        <time>2020-05-27T17:55:33Z</time>
      </trkpt>
      <trkpt lat="43.42437" lon="5.42158">
        <ele>254.89</ele>
        <time>2020-05-27T17:55:46Z</time>
      </trkpt>
      <trkpt lat="43.42446" lon="5.4214">
        <ele>256.81</ele>
        <time>2020-05-27T17:55:59Z</time>
      </trkpt>
      <trkpt lat="43.4245" lon="5.42123">
        <ele>258.25</ele>
        <time>2020-05-27T17:56:11Z</time>
      </trkpt>
      <trkpt lat="43.42449" lon="5.42099">
        <ele>256.81</ele>
        <time>2020-05-27T17:56:22Z</time>
      </trkpt>
      <trkpt lat="43.42449" lon="5.42086">
        <ele>254.41</ele>
        <time>2020-05-27T17:56:28Z</time>
      </trkpt>
      <trkpt lat="43.42449" lon="5.42084">
        <ele>253.44</ele>
        <time>2020-05-27T17:56:29Z</time>
      </trkpt>
      <trkpt lat="43.42452" lon="5.4207">
        <ele>252</ele>
        <time>2020-05-27T17:56:36Z</time>
      </trkpt>
      <trkpt lat="43.42452" lon="5.42068">
        <ele>251.52</ele>
        <time>2020-05-27T17:56:37Z</time>
      </trkpt>
      <trkpt lat="43.42453" lon="5.42067">
        <ele>251.52</ele>
        <time>2020-05-27T17:56:38Z</time>
      </trkpt>
      <trkpt lat="43.42453" lon="5.42065">
        <ele>251.52</ele>
        <time>2020-05-27T17:56:39Z</time>
      </trkpt>
      <trkpt lat="43.42454" lon="5.42063">
        <ele>251.52</ele>
        <time>2020-05-27T17:56:40Z</time>
      </trkpt>
      <trkpt lat="43.42455" lon="5.42062">
        <ele>251.52</ele>
        <time>2020-05-27T17:56:41Z</time>
      </trkpt>
      <trkpt lat="43.4246" lon="5.42052">
        <ele>251.52</ele>
        <time>2020-05-27T17:56:48Z</time>
      </trkpt>
      <trkpt lat="43.42461" lon="5.42036">
        <ele>254.41</ele>
        <time>2020-05-27T17:57:00Z</time>
      </trkpt>
      <trkpt lat="43.42464" lon="5.42027">
        <ele>252.96</ele>
        <time>2020-05-27T17:57:06Z</time>
      </trkpt>
      <trkpt lat="43.42466" lon="5.42016">
        <ele>252.96</ele>
        <time>2020-05-27T17:57:17Z</time>
      </trkpt>
      <trkpt lat="43.42465" lon="5.42002">
        <ele>253.44</ele>
        <time>2020-05-27T17:57:30Z</time>
      </trkpt>
      <trkpt lat="43.4247" lon="5.41993">
        <ele>254.89</ele>
        <time>2020-05-27T17:57:45Z</time>
      </trkpt>
      <trkpt lat="43.42475" lon="5.41984">
        <ele>255.85</ele>
        <time>2020-05-27T17:57:58Z</time>
      </trkpt>
      <trkpt lat="43.42481" lon="5.41975">
        <ele>257.29</ele>
        <time>2020-05-27T17:58:08Z</time>
      </trkpt>
      <trkpt lat="43.42483" lon="5.41975">
        <ele>256.81</ele>
        <time>2020-05-27T17:58:10Z</time>
      </trkpt>
      <trkpt lat="43.42483" lon="5.41973">
        <ele>254.89</ele>
        <time>2020-05-27T17:58:11Z</time>
      </trkpt>
      <trkpt lat="43.42483" lon="5.41968">
        <ele>252</ele>
        <time>2020-05-27T17:58:16Z</time>
      </trkpt>
      <trkpt lat="43.42484" lon="5.41967">
        <ele>252</ele>
        <time>2020-05-27T17:58:17Z</time>
      </trkpt>
      <trkpt lat="43.42485" lon="5.41965">
        <ele>252</ele>
        <time>2020-05-27T17:58:18Z</time>
      </trkpt>
      <trkpt lat="43.42492" lon="5.41961">
        <ele>251.52</ele>
        <time>2020-05-27T17:58:29Z</time>
      </trkpt>
      <trkpt lat="43.4249" lon="5.41959">
        <ele>254.89</ele>
        <time>2020-05-27T17:58:47Z</time>
      </trkpt>
      <trkpt lat="43.42497" lon="5.41955">
        <ele>256.81</ele>
        <time>2020-05-27T17:59:02Z</time>
      </trkpt>
      <trkpt lat="43.42505" lon="5.41949">
        <ele>256.81</ele>
        <time>2020-05-27T17:59:12Z</time>
      </trkpt>
      <trkpt lat="43.42517" lon="5.41946">
        <ele>256.33</ele>
        <time>2020-05-27T17:59:25Z</time>
      </trkpt>
      <trkpt lat="43.42526" lon="5.41947">
        <ele>256.33</ele>
        <time>2020-05-27T17:59:36Z</time>
      </trkpt>
      <trkpt lat="43.42529" lon="5.41948">
        <ele>256.81</ele>
        <time>2020-05-27T17:59:40Z</time>
      </trkpt>
      <trkpt lat="43.42543" lon="5.41957">
        <ele>258.25</ele>
        <time>2020-05-27T17:59:51Z</time>
      </trkpt>
      <trkpt lat="43.42552" lon="5.41966">
        <ele>257.77</ele>
        <time>2020-05-27T17:59:57Z</time>
      </trkpt>
      <trkpt lat="43.42567" lon="5.41987">
        <ele>250.56</ele>
        <time>2020-05-27T18:00:12Z</time>
      </trkpt>
      <trkpt lat="43.4257" lon="5.41994">
        <ele>249.6</ele>
        <time>2020-05-27T18:00:17Z</time>
      </trkpt>
      <trkpt lat="43.42573" lon="5.42003">
        <ele>251.52</ele>
        <time>2020-05-27T18:00:22Z</time>
      </trkpt>
      <trkpt lat="43.42583" lon="5.42015">
        <ele>253.44</ele>
        <time>2020-05-27T18:00:33Z</time>
      </trkpt>
      <trkpt lat="43.42603" lon="5.42013">
        <ele>243.35</ele>
        <time>2020-05-27T18:00:50Z</time>
      </trkpt>
      <trkpt lat="43.42617" lon="5.42011">
        <ele>240.95</ele>
        <time>2020-05-27T18:01:04Z</time>
      </trkpt>
      <trkpt lat="43.42634" lon="5.42019">
        <ele>242.87</ele>
        <time>2020-05-27T18:01:17Z</time>
      </trkpt>
      <trkpt lat="43.42644" lon="5.42032">
        <ele>242.87</ele>
        <time>2020-05-27T18:01:30Z</time>
      </trkpt>
      <trkpt lat="43.42655" lon="5.42047">
        <ele>243.83</ele>
        <time>2020-05-27T18:01:44Z</time>
      </trkpt>
      <trkpt lat="43.42661" lon="5.42065">
        <ele>242.87</ele>
        <time>2020-05-27T18:01:58Z</time>
      </trkpt>
      <trkpt lat="43.42663" lon="5.42078">
        <ele>240.47</ele>
        <time>2020-05-27T18:02:10Z</time>
      </trkpt>
      <trkpt lat="43.42664" lon="5.42081">
        <ele>240.47</ele>
        <time>2020-05-27T18:02:11Z</time>
      </trkpt>
      <trkpt lat="43.42665" lon="5.42087">
        <ele>239.51</ele>
        <time>2020-05-27T18:02:15Z</time>
      </trkpt>
      <trkpt lat="43.42664" lon="5.42106">
        <ele>234.22</ele>
        <time>2020-05-27T18:02:29Z</time>
      </trkpt>
      <trkpt lat="43.42665" lon="5.42135">
        <ele>233.26</ele>
        <time>2020-05-27T18:02:45Z</time>
      </trkpt>
      <trkpt lat="43.42668" lon="5.42161">
        <ele>233.26</ele>
        <time>2020-05-27T18:02:59Z</time>
      </trkpt>
      <trkpt lat="43.42667" lon="5.42169">
        <ele>231.81</ele>
        <time>2020-05-27T18:03:05Z</time>
      </trkpt>
      <trkpt lat="43.42671" lon="5.4219">
        <ele>227.97</ele>
        <time>2020-05-27T18:03:21Z</time>
      </trkpt>
      <trkpt lat="43.42679" lon="5.42217">
        <ele>225.57</ele>
        <time>2020-05-27T18:03:35Z</time>
      </trkpt>
      <trkpt lat="43.42687" lon="5.42229">
        <ele>225.09</ele>
        <time>2020-05-27T18:03:46Z</time>
      </trkpt>
      <trkpt lat="43.42699" lon="5.42248">
        <ele>224.12</ele>
        <time>2020-05-27T18:04:00Z</time>
      </trkpt>
      <trkpt lat="43.42709" lon="5.42262">
        <ele>224.61</ele>
        <time>2020-05-27T18:04:12Z</time>
      </trkpt>
      <trkpt lat="43.42721" lon="5.42279">
        <ele>222.2</ele>
        <time>2020-05-27T18:04:26Z</time>
      </trkpt>
      <trkpt lat="43.42733" lon="5.42299">
        <ele>217.88</ele>
        <time>2020-05-27T18:04:40Z</time>
      </trkpt>
      <trkpt lat="43.42741" lon="5.42316">
        <ele>215.95</ele>
        <time>2020-05-27T18:04:53Z</time>
      </trkpt>
      <trkpt lat="43.42752" lon="5.42338">
        <ele>216.43</ele>
        <time>2020-05-27T18:05:10Z</time>
      </trkpt>
      <trkpt lat="43.42762" lon="5.4236">
        <ele>216.43</ele>
        <time>2020-05-27T18:05:24Z</time>
      </trkpt>
      <trkpt lat="43.42772" lon="5.42382">
        <ele>214.03</ele>
        <time>2020-05-27T18:05:38Z</time>
      </trkpt>
      <trkpt lat="43.42783" lon="5.42403">
        <ele>214.51</ele>
        <time>2020-05-27T18:05:53Z</time>
      </trkpt>
      <trkpt lat="43.42795" lon="5.42426">
        <ele>216.43</ele>
        <time>2020-05-27T18:06:10Z</time>
      </trkpt>
      <trkpt lat="43.42807" lon="5.42447">
        <ele>219.8</ele>
        <time>2020-05-27T18:06:26Z</time>
      </trkpt>
      <trkpt lat="43.4282" lon="5.42467">
        <ele>220.76</ele>
        <time>2020-05-27T18:06:40Z</time>
      </trkpt>
      <trkpt lat="43.4283" lon="5.42482">
        <ele>223.64</ele>
        <time>2020-05-27T18:06:53Z</time>
      </trkpt>
      <trkpt lat="43.42837" lon="5.42497">
        <ele>224.61</ele>
        <time>2020-05-27T18:07:05Z</time>
      </trkpt>
      <trkpt lat="43.42844" lon="5.42513">
        <ele>226.53</ele>
        <time>2020-05-27T18:07:16Z</time>
      </trkpt>
      <trkpt lat="43.4285" lon="5.42516">
        <ele>228.93</ele>
        <time>2020-05-27T18:07:28Z</time>
      </trkpt>
      <trkpt lat="43.42845" lon="5.42525">
        <ele>229.41</ele>
        <time>2020-05-27T18:07:39Z</time>
      </trkpt>
      <trkpt lat="43.42845" lon="5.42532">
        <ele>229.89</ele>
        <time>2020-05-27T18:07:43Z</time>
      </trkpt>
      <trkpt lat="43.42844" lon="5.42537">
        <ele>230.37</ele>
        <time>2020-05-27T18:07:46Z</time>
      </trkpt>
      <trkpt lat="43.42842" lon="5.42554">
        <ele>233.26</ele>
        <time>2020-05-27T18:07:58Z</time>
      </trkpt>
      <trkpt lat="43.42842" lon="5.42571">
        <ele>234.22</ele>
        <time>2020-05-27T18:08:09Z</time>
      </trkpt>
      <trkpt lat="43.42845" lon="5.42589">
        <ele>233.74</ele>
        <time>2020-05-27T18:08:20Z</time>
      </trkpt>
      <trkpt lat="43.42849" lon="5.42608">
        <ele>234.7</ele>
        <time>2020-05-27T18:08:32Z</time>
      </trkpt>
      <trkpt lat="43.42849" lon="5.42615">
        <ele>235.18</ele>
        <time>2020-05-27T18:08:37Z</time>
      </trkpt>
      <trkpt lat="43.4285" lon="5.42635">
        <ele>237.1</ele>
        <time>2020-05-27T18:08:49Z</time>
      </trkpt>
      <trkpt lat="43.42853" lon="5.42656">
        <ele>237.1</ele>
        <time>2020-05-27T18:09:02Z</time>
      </trkpt>
      <trkpt lat="43.42855" lon="5.4268">
        <ele>240.95</ele>
        <time>2020-05-27T18:09:16Z</time>
      </trkpt>
      <trkpt lat="43.42856" lon="5.427">
        <ele>244.79</ele>
        <time>2020-05-27T18:09:28Z</time>
      </trkpt>
      <trkpt lat="43.42854" lon="5.42724">
        <ele>247.68</ele>
        <time>2020-05-27T18:09:40Z</time>
      </trkpt>
      <trkpt lat="43.42854" lon="5.42751">
        <ele>245.75</ele>
        <time>2020-05-27T18:09:56Z</time>
      </trkpt>
      <trkpt lat="43.42855" lon="5.42777">
        <ele>245.75</ele>
        <time>2020-05-27T18:10:11Z</time>
      </trkpt>
      <trkpt lat="43.42855" lon="5.42799">
        <ele>247.2</ele>
        <time>2020-05-27T18:10:24Z</time>
      </trkpt>
      <trkpt lat="43.42854" lon="5.42809">
        <ele>246.72</ele>
        <time>2020-05-27T18:10:31Z</time>
      </trkpt>
      <trkpt lat="43.42847" lon="5.42827">
        <ele>245.27</ele>
        <time>2020-05-27T18:10:49Z</time>
      </trkpt>
      <trkpt lat="43.42844" lon="5.4283">
        <ele>244.79</ele>
        <time>2020-05-27T18:10:54Z</time>
      </trkpt>
      <trkpt lat="43.42836" lon="5.42857">
        <ele>240.47</ele>
        <time>2020-05-27T18:11:12Z</time>
      </trkpt>
      <trkpt lat="43.42831" lon="5.42879">
        <ele>237.1</ele>
        <time>2020-05-27T18:11:26Z</time>
      </trkpt>
      <trkpt lat="43.42831" lon="5.42885">
        <ele>235.66</ele>
        <time>2020-05-27T18:11:29Z</time>
      </trkpt>
      <trkpt lat="43.42831" lon="5.42889">
        <ele>235.66</ele>
        <time>2020-05-27T18:11:31Z</time>
      </trkpt>
      <trkpt lat="43.42825" lon="5.42904">
        <ele>233.74</ele>
        <time>2020-05-27T18:11:42Z</time>
      </trkpt>
      <trkpt lat="43.42818" lon="5.42917">
        <ele>233.74</ele>
        <time>2020-05-27T18:11:54Z</time>
      </trkpt>
      <trkpt lat="43.42823" lon="5.4295">
        <ele>233.74</ele>
        <time>2020-05-27T18:12:11Z</time>
      </trkpt>
      <trkpt lat="43.42828" lon="5.42985">
        <ele>234.7</ele>
        <time>2020-05-27T18:12:27Z</time>
      </trkpt>
      <trkpt lat="43.42839" lon="5.4301">
        <ele>232.78</ele>
        <time>2020-05-27T18:12:43Z</time>
      </trkpt>
      <trkpt lat="43.42843" lon="5.43019">
        <ele>231.81</ele>
        <time>2020-05-27T18:12:50Z</time>
      </trkpt>
      <trkpt lat="43.42838" lon="5.43048">
        <ele>230.85</ele>
        <time>2020-05-27T18:13:07Z</time>
      </trkpt>
      <trkpt lat="43.42835" lon="5.43071">
        <ele>229.89</ele>
        <time>2020-05-27T18:13:23Z</time>
      </trkpt>
      <trkpt lat="43.42829" lon="5.43106">
        <ele>229.89</ele>
        <time>2020-05-27T18:13:42Z</time>
      </trkpt>
      <trkpt lat="43.42823" lon="5.43125">
        <ele>230.37</ele>
        <time>2020-05-27T18:13:56Z</time>
      </trkpt>
      <trkpt lat="43.42819" lon="5.43151">
        <ele>232.3</ele>
        <time>2020-05-27T18:14:12Z</time>
      </trkpt>
      <trkpt lat="43.42817" lon="5.43162">
        <ele>232.3</ele>
        <time>2020-05-27T18:14:19Z</time>
      </trkpt>
      <trkpt lat="43.4283" lon="5.43166">
        <ele>236.14</ele>
        <time>2020-05-27T18:14:34Z</time>
      </trkpt>
      <trkpt lat="43.4284" lon="5.43165">
        <ele>237.1</ele>
        <time>2020-05-27T18:14:46Z</time>
      </trkpt>
      <trkpt lat="43.42852" lon="5.43176">
        <ele>237.58</ele>
        <time>2020-05-27T18:15:00Z</time>
      </trkpt>
      <trkpt lat="43.42859" lon="5.43193">
        <ele>237.58</ele>
        <time>2020-05-27T18:15:14Z</time>
      </trkpt>
      <trkpt lat="43.42861" lon="5.43196">
        <ele>237.58</ele>
        <time>2020-05-27T18:15:16Z</time>
      </trkpt>
      <trkpt lat="43.42869" lon="5.43216">
        <ele>236.14</ele>
        <time>2020-05-27T18:15:30Z</time>
      </trkpt>
      <trkpt lat="43.42876" lon="5.43235">
        <ele>231.81</ele>
        <time>2020-05-27T18:15:44Z</time>
      </trkpt>
      <trkpt lat="43.42884" lon="5.43251">
        <ele>225.09</ele>
        <time>2020-05-27T18:15:57Z</time>
      </trkpt>
      <trkpt lat="43.42887" lon="5.43265">
        <ele>219.32</ele>
        <time>2020-05-27T18:16:10Z</time>
      </trkpt>
      <trkpt lat="43.42888" lon="5.43273">
        <ele>217.4</ele>
        <time>2020-05-27T18:16:16Z</time>
      </trkpt>
      <trkpt lat="43.42887" lon="5.43283">
        <ele>216.91</ele>
        <time>2020-05-27T18:16:21Z</time>
      </trkpt>
      <trkpt lat="43.42888" lon="5.43299">
        <ele>221.24</ele>
        <time>2020-05-27T18:16:29Z</time>
      </trkpt>
      <trkpt lat="43.42889" lon="5.43322">
        <ele>231.33</ele>
        <time>2020-05-27T18:16:38Z</time>
      </trkpt>
      <trkpt lat="43.42888" lon="5.43327">
        <ele>232.78</ele>
        <time>2020-05-27T18:16:41Z</time>
      </trkpt>
      <trkpt lat="43.42886" lon="5.43351">
        <ele>238.54</ele>
        <time>2020-05-27T18:16:55Z</time>
      </trkpt>
      <trkpt lat="43.42882" lon="5.43373">
        <ele>241.43</ele>
        <time>2020-05-27T18:17:09Z</time>
      </trkpt>
      <trkpt lat="43.42885" lon="5.43396">
        <ele>239.99</ele>
        <time>2020-05-27T18:17:22Z</time>
      </trkpt>
      <trkpt lat="43.42889" lon="5.43419">
        <ele>237.1</ele>
        <time>2020-05-27T18:17:36Z</time>
      </trkpt>
      <trkpt lat="43.42893" lon="5.43446">
        <ele>233.74</ele>
        <time>2020-05-27T18:17:52Z</time>
      </trkpt>
      <trkpt lat="43.42897" lon="5.43456">
        <ele>231.81</ele>
        <time>2020-05-27T18:17:59Z</time>
      </trkpt>
      <trkpt lat="43.42899" lon="5.43459">
        <ele>232.3</ele>
        <time>2020-05-27T18:18:01Z</time>
      </trkpt>
      <trkpt lat="43.42901" lon="5.43485">
        <ele>231.81</ele>
        <time>2020-05-27T18:18:16Z</time>
      </trkpt>
      <trkpt lat="43.42901" lon="5.43516">
        <ele>230.37</ele>
        <time>2020-05-27T18:18:33Z</time>
      </trkpt>
      <trkpt lat="43.42899" lon="5.4355">
        <ele>226.53</ele>
        <time>2020-05-27T18:18:50Z</time>
      </trkpt>
      <trkpt lat="43.42899" lon="5.43572">
        <ele>228.45</ele>
        <time>2020-05-27T18:19:04Z</time>
      </trkpt>
      <trkpt lat="43.42905" lon="5.43583">
        <ele>227.49</ele>
        <time>2020-05-27T18:19:19Z</time>
      </trkpt>
      <trkpt lat="43.42907" lon="5.43579">
        <ele>227.97</ele>
        <time>2020-05-27T18:19:24Z</time>
      </trkpt>
      <trkpt lat="43.42911" lon="5.43569">
        <ele>228.45</ele>
        <time>2020-05-27T18:19:34Z</time>
      </trkpt>
      <trkpt lat="43.42912" lon="5.43568">
        <ele>229.41</ele>
        <time>2020-05-27T18:19:53Z</time>
      </trkpt>
    </trkseg>
  </trk>
</gpx>